Atlantic - Newfoundland: Past 24 Hour Conditions

 

J.A. Douglas McCurdy Sydney Airport

08:00 PM ADT 24 October 2014
This table is a summary of hourly weather conditions for the past 24 hours.
Date / Time
(ADT)
Wind(knots) Conditions Visibility(km) Pressure(kPa) Air tempC) Relative humidity(%) Dew pointC)
24 October 2014
20:00 NE 4 Light Drizzle 0.6 99.8 12 99 12
19:00 NE 5 Light Drizzle 0.4 99.9 12 99 12
18:00 ENE 3 Light Drizzle 0.6 99.9 13 99 13
17:00 NE 4 Light Drizzle 0.6 100.0 13 99 13
16:00 NE 6 Light Drizzle 1 100.0 14 98 13
15:00 E 8 Light Rain 2 100.1 13 98 13
14:00 E 8 Light Rain 2 100.2 14 98 13
13:00 ESE 10 Light Rain 3 100.2 14 98 13
12:00 ESE 10 Heavy Rain 1 100.4 13 98 13
11:00 E 11 Light Rain 0.8 100.4 13 99 13
10:00 ESE 11 gust 18 Light Rain 2 100.5 13 98 12
9:00 E 11 gust 18 Light Rain 3 100.5 12 98 12
8:00 E 13 gust 18 Light Rain 2 100.6 12 98 11
7:00 ENE 16 gust 23 Rain 3 100.7 11 98 11
6:00 ENE 13 gust 22 Rain 3 100.8 11 98 11
5:00 ENE 16 gust 23 Light Rain 2 100.9 11 98 11
4:00 E 16 gust 22 Light Rain 2 101.0 11 97 10
3:00 E 16 gust 27 Light Rain 3 101.1 11 98 10
2:00 ENE 15 gust 25 Light Rain 2 101.2 11 98 10
1:00 ENE 17 gust 25 Light Rain 2 101.3 11 98 10
0:00 ENE 17 gust 24 Light Rain 2 101.4 10 98 10
23 October 2014
23:00 ENE 13 gust 19 Light Rain 2 101.5 10 98 10
22:00 ENE 11 gust 20 Light Rain 3 101.6 10 96 10
21:00 E 13 Light Rain 10 101.7 11 94 10
20:00 ENE 13 gust 22 Mostly Cloudy 16 101.7 11 88 9
 
Map of Atlantic - Newfoundland marine weather areas Southwestern Grand Banks - 44138 Banquereau - 44139 Tail of the Bank - 44140 Nickerson Bank - 44251 Northeast Burgeo Bank - 44255 Blanc-Sablon Airport Cap Whittle Chevery Natashquan Airport Heath Point Miscou Island Grand Étang Ingonish Beach North Mountain St.Paul Island J.A. Douglas McCurdy Sydney Airport Charlottetown Airport East Point North Cape Argentia Bonavista Burgeo Cape Race Corner Brook Daniel's Harbour Englee Ferolle Point La Scie Port aux Basques Rocky Harbour Sagona Island St. Anthony Airport St. John's Int'l Airport St. Lawrence Stephenville Airport Twillingate Winterland Wreckhouse Cartwright Airport Mary's Harbour Grates Cove Pool's Island Marticot Island Long Pond Îles de la Madeleine Airport
Legend: buoyBuoy land stationLand Station